KHRO/HRO METAR and TAF weather

Enter ICAO airport designator
Station Type Date Time Source
KHRO METAR 2022/11/27 08:53 UTC NOAA

KHRO 270853Z AUTO 26008G17KT 10SM OVC015 10/08 A2949 RMK AO2 SLP985 60001 T01000083 53006


Station Type Date Time Source
KHRO Decoded METAR 2022/11/27 08:53 UTC NOAA

HARRISON BOONE COUNTY AIRPORT , AR, United States (KHRO) 36-16N 093-09W 417M
Nov 27, 2022 - 03:53 AM EST / 2022.11.27 0853 UTC
Wind: from the W (260 degrees) at 9 MPH (8 KT) gusting to 20 MPH (17 KT):0
Visibility: 10 mile(s):0
Sky conditions: overcast
Temperature: 50.0 F (10.0 C)
Dew Point: 46.9 F (8.3 C)
Relative Humidity: 89%
Pressure (altimeter): 29.49 in. Hg (998 hPa)
Pressure tendency: 0.02 inches (0.6 hPa) higher than three hours ago
ob: KHRO 270853Z AUTO 26008G17KT 10SM OVC015 10/08 A2949 RMK AO2 SLP985 60001 T01000083 53006
cycle: 9

Station Type Date Time Source
KHRO TAF 2022/11/27 06:34 UTC NOAA

TAF
AMD KHRO 270532Z 2706/2806 22007G15KT 2SM -SHRA BR SCT009 OVC012
TEMPO 2706/2710 1/2SM -SHRA FG BKN002 OVC009
FM271000 27016G24KT 2SM BR VCSH BKN009 OVC025
FM271500 30013G23KT P6SM SCT015 OVC035
FM280000 31005KT P6SM OVC050

Example: see airport list